createdAt,value
2023-03-02T00:01:30.318Z,2.71
2023-03-02T00:04:01.495Z,2.99
2023-03-02T00:06:28.811Z,3.26
2023-03-02T00:08:55.981Z,3.41
2023-03-02T00:11:24.170Z,3.68
2023-03-02T00:14:11.296Z,3.36
2023-03-02T00:16:38.812Z,2.92
2023-03-02T00:19:05.569Z,2.61
2023-03-02T00:21:32.803Z,2.72
2023-03-02T00:23:59.773Z,3.23
2023-03-02T00:26:27.020Z,2.82
2023-03-02T00:28:54.002Z,2.39
2023-03-02T00:31:20.934Z,2.55
2023-03-02T00:33:47.977Z,2.87
2023-03-02T00:36:14.967Z,3.29
2023-03-02T00:38:41.690Z,3.37
2023-03-02T00:41:08.873Z,3.19
2023-03-02T00:43:35.598Z,3.53
2023-03-02T00:46:02.440Z,3.83
2023-03-02T00:51:19.815Z,4.71
2023-03-02T00:53:48.583Z,5.08
2023-03-02T00:56:16.560Z,4.41
2023-03-02T00:58:43.588Z,4.52
2023-03-02T01:01:13.928Z,3.28
2023-03-02T01:03:40.720Z,3.39
2023-03-02T01:06:08.094Z,3.92
2023-03-02T01:08:34.990Z,4.91
2023-03-02T01:11:02.114Z,4.22
2023-03-02T01:13:28.773Z,4.25
2023-03-02T01:15:57.630Z,3.19
2023-03-02T01:18:25.842Z,2.52
2023-03-02T01:20:52.915Z,2.84
2023-03-02T01:23:20.448Z,3.68
2023-03-02T01:25:47.140Z,3.56
2023-03-02T01:30:59.927Z,3.58
2023-03-02T01:33:27.346Z,3.56
2023-03-02T01:35:54.278Z,4.14
2023-03-02T01:38:21.755Z,4.06
2023-03-02T01:40:48.463Z,3.96
2023-03-02T01:43:16.059Z,4.58
2023-03-02T01:45:43.054Z,5.22
2023-03-02T01:48:10.233Z,5.07
2023-03-02T01:50:37.002Z,4.33
2023-03-02T01:53:04.711Z,4.92
2023-03-02T01:55:31.410Z,4.70
2023-03-02T02:00:52.073Z,3.56
2023-03-02T02:03:19.774Z,4.03
2023-03-02T02:05:47.182Z,5.08
2023-03-02T02:08:14.011Z,4.98
2023-03-02T02:10:40.993Z,4.26
2023-03-02T02:13:09.568Z,4.21
2023-03-02T02:15:36.195Z,3.82
2023-03-02T02:18:03.201Z,3.99
2023-03-02T02:20:30.096Z,4.76
2023-03-02T02:22:56.774Z,4.26
2023-03-02T02:25:24.207Z,3.99
2023-03-02T02:27:53.175Z,4.38
2023-03-02T02:30:20.753Z,4.47
2023-03-02T02:32:49.861Z,4.59
2023-03-02T02:35:16.648Z,4.33
2023-03-02T02:37:45.065Z,4.25
2023-03-02T02:40:15.035Z,4.59
2023-03-02T02:42:44.852Z,3.92
2023-03-02T02:45:13.300Z,3.67
2023-03-02T02:47:40.898Z,4.22
2023-03-02T02:50:07.720Z,3.82
2023-03-02T02:52:34.904Z,4.07
2023-03-02T02:55:02.358Z,4.34
2023-03-02T02:57:29.328Z,4.24
2023-03-02T02:59:56.080Z,3.95
2023-03-02T03:02:23.364Z,3.93
2023-03-02T03:04:50.307Z,3.70
2023-03-02T03:07:17.702Z,4.07
2023-03-02T03:09:44.611Z,5.23
2023-03-02T03:12:11.852Z,5.63
2023-03-02T03:14:41.315Z,4.98
2023-03-02T03:17:08.434Z,4.36
2023-03-02T03:19:35.413Z,4.73
2023-03-02T03:22:04.564Z,5.59
2023-03-02T03:24:32.038Z,5.85
2023-03-02T03:27:03.876Z,5.36
2023-03-02T03:29:30.807Z,5.19
2023-03-02T03:31:57.909Z,5.17
2023-03-02T03:34:25.458Z,4.93
2023-03-02T03:36:52.123Z,5.13
2023-03-02T03:39:18.809Z,5.67
2023-03-02T03:41:45.763Z,6.03
2023-03-02T03:44:13.043Z,6.61
2023-03-02T03:46:43.522Z,6.92
2023-03-02T03:49:10.741Z,7.23
2023-03-02T03:51:38.190Z,7.17
2023-03-02T03:54:07.066Z,7.41
2023-03-02T03:56:34.030Z,7.37
2023-03-02T03:59:01.524Z,7.45
2023-03-02T04:01:28.404Z,7.41
2023-03-02T04:03:56.969Z,7.60
2023-03-02T04:06:23.563Z,7.74
2023-03-02T04:08:51.350Z,7.51
2023-03-02T04:11:18.246Z,7.68
2023-03-02T04:13:48.848Z,7.78
2023-03-02T04:16:17.632Z,7.85
2023-03-02T04:18:45.219Z,7.30
2023-03-02T04:21:12.286Z,7.45
2023-03-02T04:26:48.295Z,6.46
2023-03-02T04:29:15.385Z,5.74
2023-03-02T04:31:42.106Z,6.00
2023-03-02T04:34:10.320Z,6.17
2023-03-02T04:36:37.517Z,6.13
2023-03-02T04:39:06.331Z,6.16
2023-03-02T04:41:33.895Z,6.74
2023-03-02T04:44:01.447Z,6.74
2023-03-02T04:46:28.604Z,6.49
2023-03-02T04:48:55.674Z,5.74
2023-03-02T04:51:22.430Z,5.79
2023-03-02T04:53:49.086Z,6.42
2023-03-02T04:56:16.844Z,5.78
2023-03-02T04:58:45.285Z,6.42
2023-03-02T05:01:12.458Z,6.66
2023-03-02T05:03:39.907Z,6.33
2023-03-02T05:06:06.450Z,6.05
2023-03-02T05:08:33.870Z,6.02
2023-03-02T05:11:01.051Z,5.61
2023-03-02T05:13:32.315Z,5.28
2023-03-02T05:16:00.004Z,5.03
2023-03-02T05:18:29.348Z,5.15
2023-03-02T05:20:57.643Z,5.34
2023-03-02T05:23:30.860Z,5.03
2023-03-02T05:26:09.234Z,4.37
2023-03-02T05:38:05.518Z,4.87
2023-03-02T05:43:44.110Z,5.07
2023-03-02T05:49:16.033Z,4.72
2023-03-02T05:51:43.306Z,4.97
2023-03-02T05:54:13.982Z,4.90
2023-03-02T05:56:41.061Z,5.64
2023-03-02T05:59:08.366Z,4.83
2023-03-02T06:01:37.133Z,5.66
2023-03-02T06:04:04.905Z,5.28
2023-03-02T06:06:34.108Z,5.48
2023-03-02T06:09:01.081Z,5.26
2023-03-02T06:11:30.022Z,5.22
2023-03-02T06:13:58.783Z,5.15
2023-03-02T06:16:27.566Z,5.95
2023-03-02T06:21:26.301Z,6.38
2023-03-02T06:23:58.694Z,6.20
2023-03-02T06:26:28.893Z,5.34
2023-03-02T06:28:58.875Z,5.26
2023-03-02T06:31:28.659Z,4.19
2023-03-02T06:33:55.403Z,5.15
2023-03-02T06:36:24.306Z,4.79
2023-03-02T06:38:54.075Z,5.24
2023-03-02T06:41:21.481Z,4.83
2023-03-02T06:43:48.125Z,4.70
2023-03-02T06:46:15.218Z,3.84
2023-03-02T06:48:45.836Z,3.57
2023-03-02T06:51:12.725Z,3.70
2023-03-02T06:53:41.000Z,4.35
2023-03-02T06:56:08.030Z,4.20
2023-03-02T06:58:35.025Z,3.69
2023-03-02T07:01:03.170Z,4.25
2023-03-02T07:03:30.234Z,5.35
2023-03-02T07:05:56.987Z,5.34
2023-03-02T07:11:44.047Z,6.02
2023-03-02T07:14:12.215Z,6.14
2023-03-02T07:16:39.339Z,6.55
2023-03-02T07:19:06.430Z,6.82
2023-03-02T07:21:34.215Z,5.70
2023-03-02T07:27:17.802Z,4.97
2023-03-02T07:29:44.525Z,5.59
2023-03-02T07:32:12.661Z,4.77
2023-03-02T07:34:41.271Z,5.41
2023-03-02T07:37:08.969Z,4.92
2023-03-02T07:39:35.838Z,4.66
2023-03-02T07:42:04.754Z,5.10
2023-03-02T07:44:35.659Z,5.49
2023-03-02T07:47:03.677Z,6.04
2023-03-02T07:49:34.312Z,6.27
2023-03-02T07:52:02.115Z,6.02
2023-03-02T07:54:33.704Z,6.36
2023-03-02T07:57:00.776Z,7.32
2023-03-02T07:59:27.575Z,7.54
2023-03-02T08:01:56.746Z,7.74
2023-03-02T08:04:23.772Z,6.92
2023-03-02T08:06:51.247Z,6.37
2023-03-02T08:09:18.101Z,6.75
2023-03-02T08:11:49.071Z,6.65
2023-03-02T08:14:17.414Z,6.41
2023-03-02T08:16:44.389Z,6.41
2023-03-02T08:19:14.289Z,7.10
2023-03-02T08:21:42.157Z,6.42
2023-03-02T08:24:09.122Z,6.34
2023-03-02T08:26:36.681Z,6.68
2023-03-02T08:29:04.136Z,6.76
2023-03-02T08:31:32.920Z,7.54
2023-03-02T08:34:02.158Z,7.66
2023-03-02T08:36:29.258Z,7.96
2023-03-02T08:38:56.195Z,8.17
2023-03-02T08:41:23.193Z,8.09
2023-03-02T08:43:54.300Z,8.01
2023-03-02T08:46:20.976Z,8.56
2023-03-02T08:48:48.561Z,8.46
2023-03-02T08:51:15.584Z,8.24
2023-03-02T08:53:42.698Z,8.38
2023-03-02T08:56:09.697Z,7.69
2023-03-02T08:58:36.813Z,8.03
2023-03-02T09:01:03.912Z,8.25
2023-03-02T09:03:30.985Z,8.27
2023-03-02T09:05:57.989Z,8.71
2023-03-02T09:08:26.426Z,8.47
2023-03-02T09:10:56.338Z,7.90
2023-03-02T09:13:23.663Z,7.17
2023-03-02T09:15:51.148Z,7.00
2023-03-02T09:18:18.586Z,6.98
2023-03-02T09:20:45.690Z,6.96
2023-03-02T09:23:13.367Z,7.43
2023-03-02T09:25:40.837Z,7.41
2023-03-02T09:28:12.242Z,7.98
2023-03-02T09:30:42.697Z,8.18
2023-03-02T09:33:10.284Z,8.78
2023-03-02T09:35:37.238Z,9.26
2023-03-02T09:38:09.992Z,8.56
2023-03-02T09:43:20.329Z,8.76
2023-03-02T09:45:48.026Z,9.06
2023-03-02T09:48:14.994Z,9.44
2023-03-02T09:50:49.211Z,9.66
2023-03-02T10:15:01.790Z,8.75
2023-03-02T10:17:32.518Z,8.60
2023-03-02T10:19:59.895Z,9.28
2023-03-02T10:22:27.873Z,9.23
2023-03-02T10:24:59.108Z,9.33
2023-03-02T10:27:26.232Z,8.26
2023-03-02T10:30:00.372Z,8.57
2023-03-02T10:32:28.574Z,9.26
2023-03-02T10:34:58.546Z,9.96
2023-03-02T10:37:25.335Z,10.20
2023-03-02T10:39:52.419Z,10.21
2023-03-02T10:42:19.589Z,10.07
2023-03-02T10:44:46.154Z,9.51
2023-03-02T10:47:13.292Z,9.81
2023-03-02T10:49:46.693Z,9.83
2023-03-02T10:52:14.393Z,9.11
2023-03-02T12:05:32.734Z,8.94
2023-03-02T12:07:59.831Z,8.72
2023-03-02T12:10:36.078Z,8.59
2023-03-02T12:13:03.280Z,8.51
2023-03-02T12:15:31.956Z,8.56
2023-03-02T12:17:59.509Z,8.59
2023-03-02T12:23:19.065Z,9.35
2023-03-02T12:28:38.152Z,8.77
2023-03-02T13:10:25.984Z,10.89
2023-03-02T13:13:04.241Z,10.25
2023-03-02T13:15:51.030Z,10.38
2023-03-02T13:18:18.272Z,10.11
2023-03-02T13:20:46.726Z,9.82
2023-03-02T13:23:13.409Z,9.98
2023-03-02T13:25:43.263Z,9.33
2023-03-02T13:28:10.736Z,10.05
2023-03-02T13:30:37.651Z,9.52
2023-03-02T13:33:04.626Z,10.18
2023-03-02T13:35:32.923Z,9.83
2023-03-02T13:37:59.982Z,10.21
2023-03-02T13:40:27.528Z,9.86
2023-03-02T13:43:01.691Z,10.21
2023-03-02T13:45:31.462Z,10.31
2023-03-02T13:54:23.386Z,10.82
2023-03-02T13:56:53.614Z,10.71
2023-03-02T13:59:20.632Z,11.04
2023-03-02T14:01:47.886Z,10.33
2023-03-02T14:04:15.439Z,9.40
2023-03-02T14:06:46.385Z,10.03
2023-03-02T14:09:14.609Z,10.39
2023-03-02T14:11:44.535Z,10.83
2023-03-02T14:14:11.907Z,10.89
2023-03-02T14:16:38.850Z,10.92
2023-03-02T14:19:06.109Z,10.71
2023-03-02T14:21:33.798Z,11.25
2023-03-02T14:24:00.763Z,10.96
2023-03-02T14:26:41.071Z,10.37
2023-03-02T16:48:41.424Z,11.31
2023-03-02T16:54:19.732Z,11.35
2023-03-02T16:56:48.387Z,11.38
2023-03-02T16:59:15.041Z,11.27
2023-03-02T17:01:42.591Z,11.34
2023-03-02T17:04:09.579Z,11.28
2023-03-02T17:06:36.545Z,11.29
2023-03-02T17:09:05.651Z,11.26
2023-03-02T17:21:03.419Z,10.89
2023-03-02T17:23:30.113Z,10.94
2023-03-02T17:26:00.388Z,10.85
2023-03-02T17:28:27.717Z,10.80
2023-03-02T17:30:58.589Z,10.76
2023-03-02T17:33:28.449Z,10.75
2023-03-02T17:35:57.104Z,10.76
2023-03-02T17:38:24.377Z,10.64
2023-03-02T17:40:55.548Z,10.69
2023-03-02T17:43:22.252Z,10.60
2023-03-02T17:45:58.515Z,10.64
2023-03-02T17:48:26.291Z,10.59
2023-03-02T17:51:00.722Z,10.60
2023-03-02T17:53:29.823Z,10.28
2023-03-02T17:55:56.799Z,10.42
2023-03-02T17:58:25.258Z,10.46
2023-03-02T18:00:54.310Z,10.47
2023-03-02T18:03:21.187Z,10.36
2023-03-02T18:05:48.329Z,10.41
2023-03-02T18:08:16.017Z,10.31
2023-03-02T18:20:31.487Z,9.97
2023-03-02T18:23:02.071Z,9.93
2023-03-02T18:31:36.425Z,9.90
2023-03-02T18:34:04.443Z,9.91
2023-03-02T18:36:34.585Z,10.01
2023-03-02T18:39:03.897Z,10.04
2023-03-02T18:41:31.633Z,9.95
2023-03-02T18:43:59.202Z,10.03
2023-03-02T18:46:27.974Z,9.89
2023-03-02T18:49:00.197Z,9.96
2023-03-02T18:51:31.829Z,9.77
2023-03-02T18:54:01.399Z,9.77
2023-03-02T18:56:39.258Z,9.87
2023-03-02T18:59:06.020Z,9.97
2023-03-02T19:01:33.009Z,10.04
2023-03-02T19:03:59.716Z,9.98
2023-03-02T19:06:37.559Z,10.00
2023-03-02T19:09:05.838Z,9.91
2023-03-02T19:11:34.081Z,9.95
2023-03-02T19:14:02.226Z,9.74
2023-03-02T19:19:17.699Z,8.56
2023-03-02T19:21:44.258Z,8.66
2023-03-02T19:24:10.757Z,8.53
2023-03-02T19:29:30.087Z,8.84
2023-03-02T19:31:56.944Z,9.35
2023-03-02T19:34:23.706Z,9.49
2023-03-02T19:36:51.016Z,9.64
2023-03-02T19:39:18.701Z,9.37
2023-03-02T19:41:55.084Z,9.44
2023-03-02T19:44:25.937Z,9.25
2023-03-02T19:46:55.572Z,9.53
2023-03-02T19:49:26.103Z,9.57
2023-03-02T19:52:00.033Z,9.22
2023-03-02T19:54:27.089Z,9.31
2023-03-02T19:56:57.240Z,9.40
2023-03-02T19:59:25.507Z,9.44
2023-03-02T20:01:57.711Z,9.52
2023-03-02T20:04:26.597Z,9.28
2023-03-02T20:06:53.501Z,9.22
2023-03-02T20:09:20.391Z,9.09
2023-03-02T23:03:21.059Z,6.17
2023-03-02T23:05:54.135Z,5.91
2023-03-02T23:08:21.548Z,6.16
2023-03-02T23:10:48.445Z,6.03
2023-03-02T23:13:15.811Z,6.49
2023-03-02T23:15:42.529Z,6.06
2023-03-02T23:18:09.436Z,6.61
2023-03-02T23:20:36.423Z,6.91
2023-03-02T23:23:03.401Z,6.05
2023-03-02T23:25:30.033Z,6.70
2023-03-02T23:27:57.726Z,6.39
2023-03-02T23:30:25.061Z,5.72
2023-03-02T23:32:52.161Z,5.63
2023-03-02T23:35:19.312Z,5.76
2023-03-02T23:37:47.257Z,6.15
2023-03-02T23:40:14.135Z,6.15
2023-03-02T23:42:40.913Z,6.24
2023-03-02T23:45:08.823Z,5.57
2023-03-02T23:47:35.775Z,5.64
2023-03-02T23:50:02.505Z,5.55
2023-03-02T23:52:29.237Z,6.30
2023-03-02T23:54:56.270Z,6.33
2023-03-02T23:57:22.928Z,6.08
2023-03-02T23:59:49.606Z,6.31
